createdAt,value
2018-10-17T00:01:40.904Z,24.37
2018-10-17T00:04:09.169Z,23.43
2018-10-17T00:06:37.456Z,28.07
2018-10-17T00:09:07.457Z,36.33
2018-10-17T00:11:35.872Z,29.30
2018-10-17T00:14:04.388Z,33.60
2018-10-17T00:16:32.652Z,43.30
2018-10-17T00:19:00.956Z,24.30
2018-10-17T00:21:29.216Z,27.90
2018-10-17T00:23:57.478Z,27.50
2018-10-17T00:26:25.800Z,32.47
2018-10-17T00:28:54.125Z,27.47
2018-10-17T00:31:22.479Z,28.33
2018-10-17T00:33:50.740Z,36.23
2018-10-17T00:36:19.029Z,33.03
2018-10-17T00:38:47.266Z,30.93
2018-10-17T00:41:15.585Z,28.90
2018-10-17T00:43:43.866Z,30.10
2018-10-17T00:46:12.176Z,50.00
2018-10-17T00:48:40.497Z,30.90
2018-10-17T00:51:08.781Z,31.03
2018-10-17T00:53:37.035Z,39.63
2018-10-17T00:56:05.982Z,28.77
2018-10-17T00:58:35.069Z,28.80
2018-10-17T01:01:04.516Z,36.80
2018-10-17T01:03:32.764Z,31.90
2018-10-17T01:06:01.049Z,32.87
2018-10-17T01:08:29.316Z,40.50
2018-10-17T01:10:57.642Z,30.17
2018-10-17T01:13:26.116Z,27.53
2018-10-17T01:15:54.388Z,43.03
2018-10-17T01:18:22.647Z,28.30
2018-10-17T01:20:50.895Z,30.90
2018-10-17T01:23:19.177Z,33.23
2018-10-17T01:25:47.436Z,29.43
2018-10-17T01:28:15.696Z,27.93
2018-10-17T01:30:43.993Z,42.90
2018-10-17T01:33:12.272Z,39.47
2018-10-17T01:35:40.537Z,34.20
2018-10-17T01:38:08.814Z,32.10
2018-10-17T01:40:37.048Z,34.60
2018-10-17T01:43:05.325Z,29.00
2018-10-17T01:45:33.612Z,39.23
2018-10-17T01:48:01.909Z,32.00
2018-10-17T01:50:30.225Z,39.20
2018-10-17T01:52:58.518Z,31.17
2018-10-17T01:55:26.851Z,30.37
2018-10-17T01:57:55.080Z,34.23
2018-10-17T02:00:23.364Z,37.20
2018-10-17T02:02:51.838Z,35.27
2018-10-17T02:05:20.284Z,35.77
2018-10-17T02:07:48.586Z,38.43
2018-10-17T02:10:16.860Z,31.17
2018-10-17T02:12:45.121Z,38.00
2018-10-17T02:15:13.393Z,35.17
2018-10-17T02:17:41.644Z,32.50
2018-10-17T02:20:09.916Z,32.53
2018-10-17T02:22:38.199Z,37.50
2018-10-17T02:25:06.662Z,32.40
2018-10-17T02:27:34.907Z,35.37
2018-10-17T02:30:03.342Z,31.00
2018-10-17T02:32:31.452Z,41.73
2018-10-17T02:35:05.250Z,34.77
2018-10-17T02:37:33.492Z,36.97
2018-10-17T02:40:01.821Z,37.90
2018-10-17T02:42:30.074Z,41.30
2018-10-17T02:44:58.425Z,28.03
2018-10-17T02:47:26.657Z,46.57
2018-10-17T02:49:55.096Z,38.60
2018-10-17T02:52:23.358Z,37.57
2018-10-17T02:54:51.658Z,38.60
2018-10-17T02:57:19.945Z,50.10
2018-10-17T02:59:48.221Z,38.00
2018-10-17T03:02:21.535Z,46.63
2018-10-17T03:05:04.391Z,42.80
2018-10-17T03:07:37.484Z,40.70
2018-10-17T03:10:05.863Z,38.13
2018-10-17T03:12:34.180Z,49.93
2018-10-17T03:15:02.513Z,38.20
2018-10-17T03:17:30.806Z,30.87
2018-10-17T03:19:59.106Z,35.53
2018-10-17T03:22:27.440Z,29.33
2018-10-17T03:24:55.842Z,38.47
2018-10-17T03:27:24.028Z,27.20
2018-10-17T03:29:52.469Z,37.23
2018-10-17T03:35:11.453Z,36.13
2018-10-17T03:37:39.668Z,48.00
2018-10-17T03:40:08.083Z,28.43
2018-10-17T03:42:36.333Z,42.93
2018-10-17T03:45:05.021Z,57.10
2018-10-17T03:47:33.340Z,37.30
2018-10-17T03:50:01.679Z,37.90
2018-10-17T03:52:29.933Z,36.43
2018-10-17T03:54:58.331Z,30.37
2018-10-17T03:57:26.661Z,43.70
2018-10-17T03:59:55.075Z,36.67
2018-10-17T04:02:23.379Z,35.30
2018-10-17T04:04:51.716Z,36.60
2018-10-17T04:07:20.114Z,42.70
2018-10-17T04:09:48.364Z,32.20
2018-10-17T04:12:16.664Z,45.23
2018-10-17T04:14:44.944Z,38.20
2018-10-17T04:17:13.519Z,38.83
2018-10-17T04:19:41.605Z,36.00
2018-10-17T04:22:09.884Z,35.80
2018-10-17T04:24:38.193Z,37.23
2018-10-17T04:27:06.517Z,37.47
2018-10-17T04:29:34.857Z,40.53
2018-10-17T04:32:03.293Z,31.87
2018-10-17T04:34:31.660Z,45.90
2018-10-17T04:37:00.149Z,36.67
2018-10-17T04:39:28.378Z,44.63
2018-10-17T04:41:56.786Z,37.60
2018-10-17T04:44:25.071Z,35.27
2018-10-17T04:46:53.427Z,34.20
2018-10-17T04:49:21.704Z,35.87
2018-10-17T04:51:49.972Z,36.17
2018-10-17T04:54:18.337Z,45.43
2018-10-17T04:56:46.635Z,46.60
2018-10-17T04:59:15.215Z,34.97
2018-10-17T05:01:43.421Z,40.47
2018-10-17T05:04:12.248Z,57.33
2018-10-17T05:06:40.545Z,36.47
2018-10-17T05:09:09.941Z,35.00
2018-10-17T05:14:29.256Z,33.07
2018-10-17T05:16:57.591Z,33.80
2018-10-17T05:19:25.861Z,42.87
2018-10-17T05:21:54.160Z,46.30
2018-10-17T05:24:22.469Z,38.00
2018-10-17T05:26:50.820Z,39.13
2018-10-17T05:29:20.265Z,36.13
2018-10-17T05:31:48.545Z,41.17
2018-10-17T05:34:16.865Z,50.70
2018-10-17T05:36:45.141Z,38.00
2018-10-17T05:39:13.513Z,37.23
2018-10-17T05:41:41.845Z,42.10
2018-10-17T05:44:10.232Z,44.23
2018-10-17T05:46:38.497Z,43.10
2018-10-17T05:49:07.010Z,59.40
2018-10-17T05:51:35.220Z,40.37
2018-10-17T05:54:03.577Z,38.50
2018-10-17T05:56:31.900Z,45.90
2018-10-17T05:59:00.235Z,56.73
2018-10-17T06:01:28.631Z,46.33
2018-10-17T06:12:49.800Z,48.53
2018-10-17T06:15:18.161Z,57.60
2018-10-17T06:17:46.538Z,44.07
2018-10-17T06:20:14.818Z,49.40
2018-10-17T06:22:43.126Z,40.67
2018-10-17T06:25:11.638Z,43.57
2018-10-17T06:27:39.909Z,49.93
2018-10-17T06:30:09.543Z,48.30
2018-10-17T06:32:37.848Z,42.70
2018-10-17T06:35:06.703Z,49.10
2018-10-17T06:37:35.226Z,41.10
2018-10-17T06:40:03.549Z,43.87
2018-10-17T06:42:31.989Z,51.93
2018-10-17T06:45:00.268Z,45.27
2018-10-17T06:47:28.553Z,51.00
2018-10-17T06:49:56.919Z,47.90
2018-10-17T06:52:25.196Z,58.40
2018-10-17T06:54:53.608Z,68.80
2018-10-17T06:57:21.924Z,95.30
2018-10-17T06:59:50.240Z,46.70
2018-10-17T07:02:19.138Z,52.83
2018-10-17T07:04:47.425Z,47.37
2018-10-17T07:07:15.802Z,40.73
2018-10-17T07:09:44.257Z,42.87
2018-10-17T07:12:12.539Z,42.30
2018-10-17T07:14:40.882Z,53.00
2018-10-17T07:17:09.233Z,55.30
2018-10-17T07:19:37.492Z,40.93
2018-10-17T07:22:05.857Z,50.30
2018-10-17T07:24:34.341Z,46.00
2018-10-17T07:27:03.143Z,52.07
2018-10-17T07:29:31.678Z,49.53
2018-10-17T07:31:59.876Z,53.43
2018-10-17T07:34:28.184Z,64.60
2018-10-17T07:36:56.493Z,50.37
2018-10-17T07:39:24.804Z,55.63
2018-10-17T07:41:53.364Z,57.30
2018-10-17T07:44:21.601Z,46.60
2018-10-17T07:46:49.912Z,57.70
2018-10-17T07:49:18.245Z,52.90
2018-10-17T07:51:46.790Z,73.43
2018-10-17T07:54:15.432Z,62.00
2018-10-17T07:56:43.601Z,58.10
2018-10-17T07:59:11.906Z,65.47
2018-10-17T08:01:40.226Z,56.67
2018-10-17T08:04:08.560Z,66.63
2018-10-17T08:06:37.043Z,55.50
2018-10-17T08:09:08.681Z,56.70
2018-10-17T08:11:37.324Z,63.93
2018-10-17T08:14:05.857Z,59.77
2018-10-17T08:16:34.138Z,59.37
2018-10-17T08:19:02.534Z,79.33
2018-10-17T08:21:31.130Z,62.30
2018-10-17T08:23:59.736Z,66.33
2018-10-17T08:26:28.200Z,61.00
2018-10-17T08:28:56.466Z,78.47
2018-10-17T08:31:24.846Z,71.47
2018-10-17T08:33:53.266Z,80.97
2018-10-17T08:36:21.746Z,86.53
2018-10-17T08:38:49.906Z,63.93
2018-10-17T08:41:18.197Z,79.93
2018-10-17T08:43:46.501Z,78.97
2018-10-17T08:46:15.245Z,100.90
2018-10-17T08:48:43.837Z,74.20
2018-10-17T08:51:12.139Z,80.40
2018-10-17T08:53:40.536Z,65.30
2018-10-17T08:56:08.893Z,84.83
2018-10-17T08:58:37.229Z,72.87
2018-10-17T09:01:05.804Z,67.20
2018-10-17T09:03:34.251Z,70.73
2018-10-17T09:06:02.633Z,72.80
2018-10-17T09:08:30.869Z,68.83
2018-10-17T09:10:59.277Z,74.73
2018-10-17T09:13:27.667Z,69.27
2018-10-17T09:15:55.963Z,67.67
2018-10-17T09:18:24.237Z,70.90
2018-10-17T09:20:52.774Z,75.70
2018-10-17T09:23:20.899Z,66.17
2018-10-17T09:25:49.205Z,87.83
2018-10-17T09:28:17.561Z,73.63
2018-10-17T09:30:45.882Z,76.07
2018-10-17T09:33:14.108Z,63.67
2018-10-17T09:35:42.460Z,65.73
2018-10-17T09:38:10.742Z,73.23
2018-10-17T09:40:39.101Z,53.07
2018-10-17T09:43:07.516Z,61.77
2018-10-17T09:45:35.975Z,76.73
2018-10-17T09:48:04.953Z,83.70
2018-10-17T09:50:33.251Z,60.47
2018-10-17T09:53:01.549Z,63.53
2018-10-17T09:55:30.373Z,57.57
2018-10-17T09:57:58.780Z,60.63
2018-10-17T10:00:32.317Z,65.93
2018-10-17T10:03:00.657Z,89.63
2018-10-17T10:05:28.979Z,63.43
2018-10-17T10:07:57.401Z,64.20
2018-10-17T10:10:25.713Z,65.10
2018-10-17T10:12:54.136Z,68.87
2018-10-17T10:15:22.846Z,70.10
2018-10-17T10:17:51.181Z,61.60
2018-10-17T10:20:19.485Z,87.20
2018-10-17T10:22:47.950Z,56.57
2018-10-17T10:25:16.328Z,65.53
2018-10-17T10:27:44.634Z,59.23
2018-10-17T10:30:13.055Z,56.33
2018-10-17T10:32:41.333Z,48.60
2018-10-17T10:35:09.662Z,55.57
2018-10-17T10:37:37.973Z,54.67
2018-10-17T10:40:06.895Z,51.53
2018-10-17T10:42:35.237Z,49.40
2018-10-17T10:45:03.772Z,46.03
2018-10-17T10:47:32.123Z,50.40
2018-10-17T10:50:00.542Z,60.23
2018-10-17T10:52:28.817Z,56.33
2018-10-17T10:54:57.094Z,59.07
2018-10-17T10:57:25.398Z,50.10
2018-10-17T10:59:53.773Z,62.00
2018-10-17T11:02:22.050Z,50.80
2018-10-17T11:04:50.456Z,49.87
2018-10-17T11:07:18.655Z,47.20
2018-10-17T11:09:46.993Z,41.50
2018-10-17T11:12:15.276Z,48.70
2018-10-17T11:14:43.955Z,47.97
2018-10-17T11:17:12.115Z,45.07
2018-10-17T11:19:40.393Z,43.07
2018-10-17T11:22:08.688Z,49.70
2018-10-17T11:24:36.979Z,48.10
2018-10-17T11:27:05.425Z,58.77
2018-10-17T11:29:33.765Z,49.00
2018-10-17T11:32:02.252Z,39.07
2018-10-17T11:34:30.515Z,49.93
2018-10-17T11:36:58.806Z,50.67
2018-10-17T11:39:27.129Z,39.20
2018-10-17T11:41:55.506Z,40.37
2018-10-17T11:44:24.106Z,46.60
2018-10-17T11:46:52.446Z,43.37
2018-10-17T11:49:20.701Z,40.03
2018-10-17T11:51:48.996Z,40.60
2018-10-17T11:54:17.361Z,49.03
2018-10-17T11:56:45.689Z,39.50
2018-10-17T12:02:05.045Z,41.93
2018-10-17T12:04:33.577Z,46.03
2018-10-17T12:07:01.887Z,46.70
2018-10-17T12:09:30.225Z,38.53
2018-10-17T12:11:58.631Z,60.13
2018-10-17T12:14:26.860Z,41.77
2018-10-17T12:16:55.204Z,46.77
2018-10-17T12:19:23.500Z,60.90
2018-10-17T12:21:51.805Z,47.73
2018-10-17T12:24:20.403Z,46.60
2018-10-17T12:26:48.699Z,48.53
2018-10-17T12:29:17.065Z,47.70
2018-10-17T12:31:45.356Z,41.27
2018-10-17T12:34:13.644Z,50.77
2018-10-17T12:36:41.970Z,46.60
2018-10-17T12:39:12.229Z,42.23
2018-10-17T12:41:40.862Z,44.57
2018-10-17T12:44:08.980Z,52.80
2018-10-17T12:46:37.459Z,49.90
2018-10-17T12:49:05.796Z,46.00
2018-10-17T12:51:34.114Z,62.27
2018-10-17T12:54:02.509Z,41.73
2018-10-17T12:56:30.843Z,45.30
2018-10-17T12:58:59.193Z,45.87
2018-10-17T13:01:27.585Z,51.53
2018-10-17T13:03:55.876Z,43.53
2018-10-17T13:06:24.489Z,50.30
2018-10-17T13:08:52.781Z,40.47
2018-10-17T13:11:21.130Z,41.97
2018-10-17T13:13:49.520Z,65.73
2018-10-17T13:16:18.261Z,41.87
2018-10-17T13:18:46.701Z,39.90
2018-10-17T13:21:15.088Z,53.30
2018-10-17T13:23:43.590Z,41.47
2018-10-17T13:26:11.925Z,48.37
2018-10-17T13:28:40.255Z,43.43
2018-10-17T13:31:08.643Z,155.30
2018-10-17T13:33:36.994Z,128.00
2018-10-17T13:36:05.338Z,31.73
2018-10-17T13:38:33.683Z,36.63
2018-10-17T13:41:02.039Z,36.20
2018-10-17T13:43:30.304Z,33.33
2018-10-17T13:45:58.560Z,37.53
2018-10-17T13:48:26.941Z,29.00
2018-10-17T13:50:55.244Z,30.20
2018-10-17T13:53:23.613Z,35.27
2018-10-17T13:55:51.978Z,30.00
2018-10-17T13:58:20.460Z,41.20
2018-10-17T14:00:48.751Z,37.00
2018-10-17T14:03:17.061Z,38.37
2018-10-17T14:05:45.369Z,29.17
2018-10-17T14:08:13.689Z,31.87
2018-10-17T14:10:41.963Z,29.73
2018-10-17T14:13:10.306Z,33.93
2018-10-17T14:15:38.615Z,34.73
2018-10-17T14:18:06.970Z,37.23
2018-10-17T14:20:35.372Z,29.67
2018-10-17T14:23:03.716Z,26.40
2018-10-17T14:25:32.074Z,29.50
2018-10-17T14:28:00.498Z,30.77
2018-10-17T14:30:28.892Z,33.63
2018-10-17T14:32:57.234Z,26.13
2018-10-17T14:35:25.504Z,24.50
2018-10-17T14:37:53.938Z,26.53
2018-10-17T14:40:22.167Z,26.87
2018-10-17T14:42:50.488Z,26.53
2018-10-17T14:45:19.103Z,28.17
2018-10-17T14:47:47.339Z,26.40
2018-10-17T14:50:15.660Z,30.00
2018-10-17T14:52:43.997Z,29.50
2018-10-17T14:55:12.290Z,25.90
2018-10-17T14:57:40.658Z,24.53
2018-10-17T15:00:12.437Z,30.17
2018-10-17T15:02:42.307Z,23.43
2018-10-17T15:05:11.053Z,24.33
2018-10-17T15:07:39.951Z,29.77
2018-10-17T15:10:08.394Z,31.53
2018-10-17T15:12:36.749Z,33.30
2018-10-17T15:15:05.867Z,29.93
2018-10-17T15:17:34.352Z,30.13
2018-10-17T15:20:02.661Z,41.43
2018-10-17T15:22:30.993Z,28.43
2018-10-17T15:24:59.340Z,28.27
2018-10-17T15:27:27.658Z,25.53
2018-10-17T15:29:55.960Z,32.60
2018-10-17T15:32:24.236Z,37.20
2018-10-17T15:34:52.557Z,27.90
2018-10-17T15:37:20.829Z,33.40
2018-10-17T15:39:49.124Z,29.60
2018-10-17T15:42:17.524Z,25.20
2018-10-17T15:44:45.796Z,35.10
2018-10-17T15:47:14.357Z,35.20
2018-10-17T15:49:42.606Z,26.40
2018-10-17T15:52:10.980Z,23.77
2018-10-17T15:54:39.248Z,31.63
2018-10-17T15:57:07.892Z,23.10
2018-10-17T15:59:36.167Z,31.60
2018-10-17T16:02:04.736Z,20.47
2018-10-17T16:04:33.056Z,23.27
2018-10-17T16:07:01.438Z,26.63
2018-10-17T16:09:29.717Z,26.37
2018-10-17T16:11:58.141Z,20.23
2018-10-17T16:14:26.466Z,20.83
2018-10-17T16:16:54.879Z,36.33
2018-10-17T16:19:23.141Z,25.83
2018-10-17T16:21:51.433Z,25.77
2018-10-17T16:24:19.810Z,23.17
2018-10-17T16:26:48.046Z,25.53
2018-10-17T16:29:16.656Z,59.63
2018-10-17T16:31:44.974Z,27.23
2018-10-17T16:34:13.337Z,26.40
2018-10-17T16:36:41.624Z,45.73
2018-10-17T16:39:11.324Z,22.13
2018-10-17T16:41:39.643Z,26.77
2018-10-17T16:44:08.508Z,33.73
2018-10-17T16:46:37.156Z,21.73
2018-10-17T16:49:05.953Z,28.17
2018-10-17T16:51:34.271Z,22.43
2018-10-17T16:54:02.907Z,23.90
2018-10-17T16:56:31.338Z,26.77
2018-10-17T16:58:59.675Z,28.33
2018-10-17T17:01:28.043Z,23.07
2018-10-17T17:03:56.560Z,22.90
2018-10-17T17:06:25.115Z,23.80
2018-10-17T17:08:53.786Z,28.37
2018-10-17T17:11:22.355Z,31.10
2018-10-17T17:13:50.676Z,22.47
2018-10-17T17:16:19.083Z,26.13
2018-10-17T17:18:47.400Z,23.40
2018-10-17T17:21:16.075Z,23.70
2018-10-17T17:23:44.379Z,33.17
2018-10-17T17:26:12.671Z,18.23
2018-10-17T17:28:41.057Z,18.80
2018-10-17T17:31:09.409Z,21.53
2018-10-17T17:33:37.819Z,19.57
2018-10-17T17:36:06.173Z,17.77
2018-10-17T17:38:35.321Z,22.40
2018-10-17T17:41:03.630Z,20.23
2018-10-17T17:43:32.060Z,16.93
2018-10-17T17:46:00.466Z,15.93
2018-10-17T17:48:28.736Z,16.50
2018-10-17T17:50:57.008Z,18.80
2018-10-17T17:53:25.361Z,19.83
2018-10-17T17:55:53.633Z,31.93
2018-10-17T17:58:22.004Z,21.70
2018-10-17T18:00:50.260Z,23.37
2018-10-17T18:03:18.573Z,22.23
2018-10-17T18:05:46.866Z,17.27
2018-10-17T18:08:15.193Z,20.10
2018-10-17T18:10:43.514Z,22.23
2018-10-17T18:13:11.809Z,17.30
2018-10-17T18:15:40.320Z,20.80
2018-10-17T18:18:08.610Z,23.07
2018-10-17T18:20:36.926Z,22.63
2018-10-17T18:23:05.940Z,21.13
2018-10-17T18:25:34.283Z,20.80
2018-10-17T18:28:03.123Z,19.10
2018-10-17T18:30:31.343Z,20.87
2018-10-17T18:32:59.632Z,16.27
2018-10-17T18:35:28.110Z,39.93
2018-10-17T18:37:56.449Z,19.90
2018-10-17T18:40:24.820Z,17.57
2018-10-17T18:42:53.982Z,26.10
2018-10-17T18:45:22.963Z,21.00
2018-10-17T18:47:51.605Z,26.60
2018-10-17T18:50:20.104Z,18.53
2018-10-17T18:52:48.887Z,20.17
2018-10-17T18:55:17.440Z,25.13
2018-10-17T18:57:46.177Z,20.93
2018-10-17T19:00:15.467Z,29.00
2018-10-17T19:02:43.936Z,22.70
2018-10-17T19:05:12.483Z,17.20
2018-10-17T19:07:41.012Z,15.60
2018-10-17T19:10:10.759Z,23.40
2018-10-17T19:12:39.708Z,25.30
2018-10-17T19:15:08.847Z,23.93
2018-10-17T19:17:37.439Z,21.17
2018-10-17T19:20:06.251Z,26.90
2018-10-17T19:22:34.552Z,28.40
2018-10-17T19:25:03.865Z,29.37
2018-10-17T19:27:32.448Z,23.57
2018-10-17T19:30:00.782Z,23.63
2018-10-17T19:32:29.325Z,25.97
2018-10-17T19:34:58.204Z,26.17
2018-10-17T19:37:26.830Z,23.83
2018-10-17T19:39:55.287Z,26.93
2018-10-17T19:42:23.770Z,25.53
2018-10-17T19:44:52.202Z,23.37
2018-10-17T19:47:20.725Z,23.77
2018-10-17T19:49:49.236Z,24.30
2018-10-17T19:52:18.294Z,20.97
2018-10-17T19:54:46.637Z,28.07
2018-10-17T19:57:14.978Z,30.23
2018-10-17T19:59:43.352Z,29.80
2018-10-17T20:02:11.734Z,27.23
2018-10-17T20:04:40.167Z,30.33
2018-10-17T20:07:08.806Z,27.63
2018-10-17T20:09:37.649Z,25.90
2018-10-17T20:12:06.400Z,21.43
2018-10-17T20:14:34.796Z,25.73
2018-10-17T20:17:03.321Z,29.77
2018-10-17T20:19:31.979Z,26.50
2018-10-17T20:22:00.548Z,26.60
2018-10-17T20:24:29.149Z,23.40
2018-10-17T20:26:57.795Z,25.30
2018-10-17T20:29:26.280Z,24.63
2018-10-17T20:31:55.148Z,25.10
2018-10-17T20:34:23.830Z,29.73
2018-10-17T20:36:52.122Z,29.33
2018-10-17T20:39:20.449Z,37.37
2018-10-17T20:41:48.800Z,31.37
2018-10-17T20:44:17.121Z,26.40
2018-10-17T20:46:45.409Z,27.33
2018-10-17T20:49:13.789Z,28.13
2018-10-17T20:51:42.136Z,26.63
2018-10-17T20:54:10.428Z,30.87
2018-10-17T20:56:38.719Z,28.83
2018-10-17T20:59:07.024Z,28.23
2018-10-17T21:01:35.847Z,35.60
2018-10-17T21:04:04.455Z,33.10
2018-10-17T21:06:32.737Z,40.03
2018-10-17T21:09:01.072Z,29.07
2018-10-17T21:11:29.372Z,34.47
2018-10-17T21:13:57.673Z,35.93
2018-10-17T21:16:26.133Z,32.13
2018-10-17T21:18:54.486Z,28.43
2018-10-17T21:21:22.689Z,29.73
2018-10-17T21:23:50.998Z,36.60
2018-10-17T21:26:19.277Z,29.53
2018-10-17T21:28:47.605Z,30.40
2018-10-17T21:31:15.888Z,34.10
2018-10-17T21:33:44.257Z,33.43
2018-10-17T21:36:12.573Z,29.17
2018-10-17T21:38:40.876Z,28.57
2018-10-17T21:41:09.182Z,31.20
2018-10-17T21:43:37.497Z,27.33
2018-10-17T21:46:05.909Z,39.67
2018-10-17T21:48:34.227Z,26.13
2018-10-17T21:51:02.549Z,26.37
2018-10-17T21:53:30.949Z,35.33
2018-10-17T21:55:59.316Z,27.13
2018-10-17T21:58:27.584Z,30.23
2018-10-17T22:00:55.917Z,34.73
2018-10-17T22:03:24.212Z,24.70
2018-10-17T22:05:52.530Z,34.73
2018-10-17T22:08:20.861Z,30.47
2018-10-17T22:10:49.192Z,39.70
2018-10-17T22:13:17.508Z,28.53
2018-10-17T22:15:45.894Z,34.90
2018-10-17T22:18:14.224Z,29.40
2018-10-17T22:20:42.516Z,27.20
2018-10-17T22:23:11.077Z,28.63
2018-10-17T22:25:39.497Z,31.63
2018-10-17T22:28:07.772Z,25.67
2018-10-17T22:30:36.104Z,30.40
2018-10-17T22:33:04.412Z,30.40
2018-10-17T22:35:32.736Z,44.77
2018-10-17T22:38:01.076Z,25.97
2018-10-17T22:40:29.328Z,34.50
2018-10-17T22:42:57.637Z,31.77
2018-10-17T22:45:25.916Z,43.83
2018-10-17T22:47:54.268Z,30.67
2018-10-17T22:50:22.566Z,33.57
2018-10-17T22:52:51.009Z,26.87
2018-10-17T22:55:19.496Z,28.23
2018-10-17T22:57:47.782Z,22.37
2018-10-17T23:00:16.050Z,31.23
2018-10-17T23:02:44.370Z,29.80
2018-10-17T23:05:12.684Z,32.73
2018-10-17T23:07:40.986Z,27.10
2018-10-17T23:10:09.255Z,37.53
2018-10-17T23:12:37.565Z,31.63
2018-10-17T23:15:10.234Z,40.63
2018-10-17T23:17:38.589Z,30.13
2018-10-17T23:20:07.053Z,30.83
2018-10-17T23:22:35.315Z,38.93
2018-10-17T23:25:03.881Z,33.83
2018-10-17T23:27:32.188Z,27.30
2018-10-17T23:30:00.661Z,32.17
2018-10-17T23:32:28.936Z,45.00
2018-10-17T23:34:57.464Z,29.97
2018-10-17T23:37:25.760Z,34.10
2018-10-17T23:39:54.049Z,29.83
2018-10-17T23:42:22.394Z,33.27
2018-10-17T23:45:02.672Z,30.73
2018-10-17T23:47:31.045Z,27.20
2018-10-17T23:49:59.403Z,25.33
2018-10-17T23:52:27.693Z,30.60
2018-10-17T23:54:55.949Z,20.93
2018-10-17T23:57:25.602Z,23.90
2018-10-17T23:59:55.870Z,31.23
